Terminal Aerodrome Forecast
Issued by NWS

Home | Current Version | Previous Version | Text Only | Print | Product List | Glossary On
Versions: 1 2 3 4 5 6 7 8 9 10 11 12 13 14 15 16 17 18 19 20 21 22 23 24 25 26 27 28 29 30
000
FTAK31 PAFA 192320
TAFAOT
TAF
PAOT 192320Z 2000/2024 33012KT P6SM FEW100 SCT220
     FM200900 32015KT P6SM VCSH SCT050 OVC100
     FM201800 31012KT P6SM SCT250=

USA.gov is the U.S. government's official web portal to all federal, state and local government web resources and services.